createdAt,value
2022-08-19T00:01:37.738Z,100702.09
2022-08-19T00:04:08.246Z,100730.28
2022-08-19T00:06:38.055Z,100700.56
2022-08-19T00:09:07.862Z,100685.78
2022-08-19T00:11:38.063Z,100680.00
2022-08-19T00:14:07.497Z,100664.88
2022-08-19T00:16:35.367Z,100658.78
2022-08-19T00:19:02.664Z,100647.88
2022-08-19T00:21:29.968Z,100619.94
2022-08-19T00:24:01.150Z,100608.53
2022-08-19T00:26:29.100Z,100587.31
2022-08-19T00:28:56.651Z,100571.50
2022-08-19T00:31:23.949Z,100579.25
2022-08-19T00:33:51.439Z,100591.84
2022-08-19T00:36:18.823Z,100619.78
2022-08-19T00:38:46.531Z,100632.88
2022-08-19T00:41:15.943Z,100648.38
2022-08-19T00:43:43.344Z,100656.31
2022-08-19T00:46:10.731Z,100657.50
2022-08-19T00:48:38.307Z,100665.59
2022-08-19T00:51:06.844Z,100664.91
2022-08-19T00:53:35.125Z,100670.56
2022-08-19T00:56:07.123Z,100667.06
2022-08-19T00:58:36.354Z,100659.38
2022-08-19T01:01:05.803Z,100663.91
2022-08-19T01:03:57.218Z,100670.75
2022-08-19T01:06:20.895Z,100671.31
2022-08-19T01:08:50.023Z,100671.66
2022-08-19T01:11:18.097Z,100659.03
2022-08-19T01:13:49.279Z,100647.91
2022-08-19T01:16:20.459Z,100645.41
2022-08-19T01:18:50.136Z,100637.31
2022-08-19T01:21:25.255Z,100650.91
2022-08-19T01:23:52.575Z,100668.72
2022-08-19T01:26:23.577Z,100667.72
2022-08-19T01:28:54.803Z,100651.25
2022-08-19T01:31:33.224Z,100662.00
2022-08-19T01:34:02.433Z,100649.41
2022-08-19T01:36:39.076Z,100628.69
2022-08-19T01:39:11.784Z,100621.63
2022-08-19T01:41:39.036Z,100605.63
2022-08-19T01:44:17.703Z,100609.66
2022-08-19T01:46:48.939Z,100597.88
2022-08-19T01:49:18.650Z,100600.41
2022-08-19T01:51:46.389Z,100604.63
2022-08-19T01:54:23.429Z,100604.28
2022-08-19T01:57:01.979Z,100613.13
2022-08-19T01:59:30.471Z,100597.69
2022-08-19T02:01:57.705Z,100592.34
2022-08-19T02:04:26.425Z,100580.84
2022-08-19T02:06:53.720Z,100589.28
2022-08-19T02:09:21.021Z,100587.06
2022-08-19T02:11:48.336Z,100580.03
2022-08-19T02:14:15.538Z,100577.16
2022-08-19T02:16:42.782Z,100573.09
2022-08-19T02:19:11.334Z,100579.13
2022-08-19T02:21:38.728Z,100565.19
2022-08-19T02:24:06.158Z,100567.88
2022-08-19T02:26:34.412Z,100563.00
2022-08-19T02:29:01.876Z,100559.63
2022-08-19T02:31:29.275Z,100547.47
2022-08-19T02:33:57.428Z,100546.63
2022-08-19T02:36:26.157Z,100554.03
2022-08-19T02:38:54.450Z,100555.50
2022-08-19T02:41:33.716Z,100559.00
2022-08-19T02:44:28.693Z,100555.31
2022-08-19T02:46:52.313Z,100548.66
2022-08-19T02:49:20.138Z,100541.88
2022-08-19T02:51:47.965Z,100549.53
2022-08-19T02:54:16.036Z,100542.28
2022-08-19T02:56:44.702Z,100547.47
2022-08-19T02:59:12.774Z,100548.66
2022-08-19T03:01:42.516Z,100552.84
2022-08-19T03:04:15.471Z,100544.78
2022-08-19T03:06:45.686Z,100556.75
2022-08-19T03:09:13.308Z,100555.38
2022-08-19T03:11:40.912Z,100555.34
2022-08-19T03:14:10.230Z,100541.72
2022-08-19T03:16:49.948Z,100549.25
2022-08-19T03:19:19.547Z,100553.78
2022-08-19T03:21:47.163Z,100562.16
2022-08-19T03:24:16.224Z,100567.00
2022-08-19T03:26:46.051Z,100555.63
2022-08-19T03:29:13.898Z,100551.94
2022-08-19T03:31:52.616Z,100536.03
2022-08-19T03:34:27.284Z,100524.13
2022-08-19T03:36:56.943Z,100522.28
2022-08-19T03:39:26.011Z,100512.72
2022-08-19T03:42:33.015Z,100508.06
2022-08-19T03:44:46.014Z,100515.41
2022-08-19T03:47:17.529Z,100537.63
2022-08-19T03:49:45.449Z,100544.00
2022-08-19T03:52:12.804Z,100551.75
2022-08-19T03:54:40.245Z,100562.50
2022-08-19T03:57:08.191Z,100565.00
2022-08-19T03:59:36.905Z,100569.22
2022-08-19T04:02:10.013Z,100562.22
2022-08-19T04:04:44.097Z,100559.69
2022-08-19T04:07:16.684Z,100564.78
2022-08-19T04:09:44.661Z,100566.28
2022-08-19T04:12:11.916Z,100569.38
2022-08-19T04:14:39.123Z,100584.97
2022-08-19T04:17:06.458Z,100583.81
2022-08-19T04:19:37.518Z,100587.66
2022-08-19T04:22:05.627Z,100592.53
2022-08-19T04:24:33.358Z,100593.31
2022-08-19T04:27:02.916Z,100598.53
2022-08-19T04:29:31.204Z,100598.94
2022-08-19T04:32:08.579Z,100583.16
2022-08-19T04:35:15.821Z,100580.94
2022-08-19T04:37:27.501Z,100576.53
2022-08-19T04:40:20.244Z,100582.56
2022-08-19T04:42:47.674Z,100584.41
2022-08-19T04:45:15.192Z,100588.63
2022-08-19T04:47:47.725Z,100586.94
2022-08-19T04:50:27.194Z,100585.09
2022-08-19T04:52:56.383Z,100585.16
2022-08-19T04:55:26.389Z,100579.09
2022-08-19T04:57:54.890Z,100575.91
2022-08-19T05:00:22.281Z,100584.25
2022-08-19T05:02:50.274Z,100577.44
2022-08-19T05:05:18.255Z,100573.72
2022-08-19T05:07:45.861Z,100575.03
2022-08-19T05:10:13.728Z,100563.75
2022-08-19T05:12:41.025Z,100584.25
2022-08-19T05:15:09.620Z,100598.53
2022-08-19T05:17:38.971Z,100593.81
2022-08-19T05:20:26.693Z,100586.56
2022-08-19T05:22:54.377Z,100586.75
2022-08-19T05:25:22.840Z,100586.56
2022-08-19T05:27:50.399Z,100599.47
2022-08-19T05:30:18.147Z,100600.28
2022-08-19T05:32:45.919Z,100590.34
2022-08-19T05:35:13.403Z,100548.13
2022-08-19T05:37:41.470Z,100587.13
2022-08-19T05:40:10.777Z,100643.66
2022-08-19T05:42:38.547Z,100643.56
2022-08-19T05:45:06.394Z,100621.59
2022-08-19T05:47:33.631Z,100610.41
2022-08-19T05:50:02.784Z,100617.72
2022-08-19T05:52:33.512Z,100636.53
2022-08-19T05:55:00.904Z,100638.03
2022-08-19T05:57:30.009Z,100622.94
2022-08-19T05:59:59.182Z,100620.78
2022-08-19T06:02:31.713Z,100626.91
2022-08-19T06:04:59.608Z,100611.97
2022-08-19T06:07:26.939Z,100607.91
2022-08-19T06:10:00.354Z,100614.97
2022-08-19T06:12:35.596Z,100618.34
2022-08-19T06:15:10.378Z,100620.25
2022-08-19T06:17:37.941Z,100631.91
2022-08-19T06:20:08.016Z,100641.00
2022-08-19T06:22:43.766Z,100642.44
2022-08-19T06:25:12.272Z,100644.88
2022-08-19T06:27:58.531Z,100637.81
2022-08-19T06:30:28.043Z,100643.72
2022-08-19T06:32:55.279Z,100636.97
2022-08-19T06:35:22.548Z,100644.41
2022-08-19T06:37:49.754Z,100663.66
2022-08-19T06:40:17.062Z,100662.06
2022-08-19T06:42:50.985Z,100673.13
2022-08-19T06:45:25.156Z,100671.75
2022-08-19T06:48:02.088Z,100674.13
2022-08-19T06:50:30.621Z,100685.84
2022-08-19T06:52:57.888Z,100674.34
2022-08-19T06:55:30.219Z,100684.09
2022-08-19T06:58:04.731Z,100690.94
2022-08-19T07:00:32.638Z,100689.78
2022-08-19T07:03:06.094Z,100702.50
2022-08-19T07:05:41.169Z,100706.03
2022-08-19T07:08:13.408Z,100697.84
2022-08-19T07:10:44.699Z,100708.41
2022-08-19T07:13:12.530Z,100712.63
2022-08-19T07:15:39.995Z,100709.63
2022-08-19T07:18:07.245Z,100708.66
2022-08-19T07:20:41.947Z,100701.28
2022-08-19T07:23:16.107Z,100699.75
2022-08-19T07:25:52.960Z,100712.31
2022-08-19T07:28:24.316Z,100711.16
2022-08-19T07:30:53.084Z,100715.75
2022-08-19T07:33:20.746Z,100727.97
2022-08-19T07:35:48.080Z,100727.88
2022-08-19T07:38:17.025Z,100737.03
2022-08-19T07:40:47.007Z,100735.72
2022-08-19T07:43:17.380Z,100741.72
2022-08-19T07:45:46.280Z,100743.09
2022-08-19T07:48:13.737Z,100741.56
2022-08-19T07:50:41.327Z,100741.47
2022-08-19T07:53:08.564Z,100745.00
2022-08-19T07:55:42.143Z,100747.91
2022-08-19T07:58:13.585Z,100738.81
2022-08-19T08:00:42.104Z,100730.81
2022-08-19T08:03:09.673Z,100724.91
2022-08-19T08:05:55.690Z,100734.47
2022-08-19T08:08:44.066Z,100732.50
2022-08-19T08:11:20.061Z,100727.66
2022-08-19T08:14:01.159Z,100722.50
2022-08-19T08:16:39.567Z,100724.03
2022-08-19T08:19:20.307Z,100731.88
2022-08-19T08:21:54.686Z,100740.53
2022-08-19T08:24:22.028Z,100737.44
2022-08-19T08:26:57.898Z,100747.56
2022-08-19T08:29:34.889Z,100750.16
2022-08-19T08:32:02.954Z,100760.22
2022-08-19T08:34:30.194Z,100761.94
2022-08-19T08:36:57.427Z,100763.44
2022-08-19T08:39:24.636Z,100765.69
2022-08-19T08:42:09.894Z,100761.88
2022-08-19T08:44:44.713Z,100757.09
2022-08-19T08:47:19.037Z,100760.00
2022-08-19T08:49:51.334Z,100762.19
2022-08-19T08:52:24.657Z,100761.00
2022-08-19T08:55:10.299Z,100762.34
2022-08-19T08:57:55.964Z,100771.28
2022-08-19T09:00:23.464Z,100761.88
2022-08-19T09:02:51.598Z,100766.81
2022-08-19T09:05:26.017Z,100776.94
2022-08-19T09:08:08.031Z,100776.47
2022-08-19T09:10:44.639Z,100789.78
2022-08-19T09:13:37.612Z,100795.84
2022-08-19T09:16:11.123Z,100790.81
2022-08-19T09:18:48.124Z,100802.59
2022-08-19T09:21:16.759Z,100804.09
2022-08-19T09:23:44.679Z,100810.03
2022-08-19T09:26:16.507Z,100807.69
2022-08-19T09:28:48.341Z,100811.72
2022-08-19T09:31:25.455Z,100818.44
2022-08-19T09:33:53.952Z,100812.44
2022-08-19T09:39:02.144Z,100807.03
2022-08-19T09:41:29.927Z,100802.13
2022-08-19T09:43:58.552Z,100800.47
2022-08-19T09:46:28.444Z,100801.28
2022-08-19T09:49:06.006Z,100799.31
2022-08-19T09:51:35.009Z,100804.50
2022-08-19T09:54:04.526Z,100816.13
2022-08-19T09:56:34.123Z,100808.59
2022-08-19T09:59:04.620Z,100800.69
2022-08-19T10:01:32.980Z,100798.66
2022-08-19T10:04:07.592Z,100796.63
2022-08-19T10:06:46.777Z,100786.50
2022-08-19T10:09:16.015Z,100785.66
2022-08-19T10:11:54.469Z,100800.50
2022-08-19T10:14:24.847Z,100781.28
2022-08-19T10:16:52.891Z,100786.13
2022-08-19T10:19:26.135Z,100788.09
2022-08-19T10:21:54.085Z,100784.06
2022-08-19T10:24:21.712Z,100782.25
2022-08-19T10:26:55.786Z,100770.75
2022-08-19T10:29:32.706Z,100781.88
2022-08-19T10:32:09.693Z,100773.28
2022-08-19T10:34:48.931Z,100783.03
2022-08-19T10:37:28.891Z,100779.97
2022-08-19T10:39:58.863Z,100775.06
2022-08-19T10:42:26.267Z,100774.56
2022-08-19T10:44:53.572Z,100767.28
2022-08-19T10:47:25.370Z,100761.19
2022-08-19T10:50:13.427Z,100748.69
2022-08-19T10:52:49.209Z,100747.41
2022-08-19T10:55:40.164Z,100748.16
2022-08-19T10:58:13.313Z,100744.59
2022-08-19T11:00:41.503Z,100740.84
2022-08-19T11:03:09.623Z,100736.03
2022-08-19T11:05:39.879Z,100736.53
2022-08-19T11:08:21.232Z,100734.38
2022-08-19T11:11:01.703Z,100736.59
2022-08-19T11:13:30.590Z,100738.19
2022-08-19T11:16:07.705Z,100746.16
2022-08-19T11:18:37.671Z,100731.63
2022-08-19T11:21:18.236Z,100736.03
2022-08-19T11:23:47.945Z,100735.97
2022-08-19T11:26:16.652Z,100737.03
2022-08-19T11:28:44.037Z,100736.84
2022-08-19T11:31:17.467Z,100732.22
2022-08-19T11:33:47.149Z,100741.19
2022-08-19T11:36:17.108Z,100738.22
2022-08-19T11:38:45.915Z,100739.09
2022-08-19T11:41:13.211Z,100736.66
2022-08-19T11:43:41.095Z,100736.19
2022-08-19T11:46:11.525Z,100731.00
2022-08-19T11:48:39.520Z,100729.06
2022-08-19T11:51:09.850Z,100724.00
2022-08-19T11:53:38.287Z,100724.69
2022-08-19T11:56:07.012Z,100719.72
2022-08-19T11:58:35.256Z,100719.44
2022-08-19T12:01:05.968Z,100728.28
2022-08-19T12:03:33.405Z,100716.03
2022-08-19T12:06:06.110Z,100715.78
2022-08-19T12:08:33.541Z,100721.03
2022-08-19T12:11:03.996Z,100721.44
2022-08-19T12:13:32.019Z,100720.22
2022-08-19T12:16:00.411Z,100713.25
2022-08-19T12:18:27.799Z,100703.13
2022-08-19T12:20:58.320Z,100706.50
2022-08-19T12:23:25.836Z,100705.00
2022-08-19T12:25:53.147Z,100717.03
2022-08-19T12:28:21.896Z,100702.75
2022-08-19T12:30:52.045Z,100704.16
2022-08-19T12:33:24.842Z,100705.06
2022-08-19T12:35:52.972Z,100700.16
2022-08-19T12:38:20.880Z,100697.66
2022-08-19T12:40:49.120Z,100706.22
2022-08-19T12:43:16.740Z,100700.22
2022-08-19T12:45:44.643Z,100702.41
2022-08-19T12:48:33.369Z,100710.28
2022-08-19T12:51:08.160Z,100697.06
2022-08-19T12:53:39.262Z,100699.97
2022-08-19T12:56:11.465Z,100712.69
2022-08-19T12:58:40.541Z,100701.34
2022-08-19T13:01:15.751Z,100704.38
2022-08-19T13:03:47.623Z,100700.56
2022-08-19T13:06:15.983Z,100702.22
2022-08-19T13:08:46.830Z,100715.00
2022-08-19T13:11:20.388Z,100706.56
2022-08-19T13:13:49.320Z,100701.19
2022-08-19T13:16:16.899Z,100707.44
2022-08-19T13:18:48.323Z,100715.66
2022-08-19T13:21:16.134Z,100716.44
2022-08-19T13:23:43.452Z,100714.28
2022-08-19T13:26:12.627Z,100717.72
2022-08-19T13:29:00.040Z,100710.34
2022-08-19T13:31:51.112Z,100712.72
2022-08-19T13:34:26.516Z,100709.38
2022-08-19T13:36:58.650Z,100714.09
2022-08-19T13:39:26.276Z,100703.25
2022-08-19T13:41:53.688Z,100707.31
2022-08-19T13:44:21.522Z,100705.06
2022-08-19T13:46:54.146Z,100707.31
2022-08-19T13:49:22.433Z,100709.97
2022-08-19T13:51:49.727Z,100708.66
2022-08-19T13:54:17.044Z,100713.47
2022-08-19T13:56:45.896Z,100721.13
2022-08-19T13:59:13.338Z,100716.22
2022-08-19T14:01:41.992Z,100720.75
2022-08-19T14:04:09.739Z,100719.44
2022-08-19T14:06:37.017Z,100721.25
2022-08-19T14:09:05.598Z,100718.72
2022-08-19T14:11:32.830Z,100721.09
2022-08-19T14:14:00.106Z,100723.78
2022-08-19T14:16:28.238Z,100721.34
2022-08-19T14:18:55.824Z,100720.16
2022-08-19T14:21:25.476Z,100711.56
2022-08-19T14:23:53.798Z,100715.88
2022-08-19T14:26:22.515Z,100719.53
2022-08-19T14:28:50.406Z,100724.00
2022-08-19T14:31:19.939Z,100715.13
2022-08-19T14:33:51.677Z,100709.25
2022-08-19T14:36:21.248Z,100710.81
2022-08-19T14:38:49.781Z,100714.16
2022-08-19T14:41:20.445Z,100702.84
2022-08-19T14:43:50.761Z,100699.31
2022-08-19T14:46:21.539Z,100692.25
2022-08-19T14:48:50.739Z,100695.91
2022-08-19T14:51:21.875Z,100696.28
2022-08-19T14:53:52.255Z,100690.13
2022-08-19T14:56:23.311Z,100703.88
2022-08-19T14:58:54.228Z,100703.41
2022-08-19T15:01:24.974Z,100709.72
2022-08-19T15:03:55.720Z,100712.81
2022-08-19T15:06:25.019Z,100710.19
2022-08-19T15:08:52.759Z,100723.25
2022-08-19T15:11:23.595Z,100726.03
2022-08-19T15:13:51.517Z,100729.16
2022-08-19T15:16:19.263Z,100717.75
2022-08-19T15:18:50.637Z,100731.91
2022-08-19T15:21:27.196Z,100727.47
2022-08-19T15:23:57.270Z,100731.31
2022-08-19T15:26:27.322Z,100718.97
2022-08-19T15:28:55.012Z,100718.16
2022-08-19T15:31:28.096Z,100716.53
2022-08-19T15:33:59.191Z,100707.78
2022-08-19T15:36:27.425Z,100714.41
2022-08-19T15:38:56.310Z,100703.56
2022-08-19T15:41:30.656Z,100710.28
2022-08-19T15:44:01.554Z,100704.03
2022-08-19T15:46:30.959Z,100693.16
2022-08-19T15:49:00.204Z,100698.28
2022-08-19T15:51:30.420Z,100697.66
2022-08-19T15:54:00.129Z,100698.31
2022-08-19T15:56:47.339Z,100707.47
2022-08-19T15:59:47.089Z,100702.50
2022-08-19T16:02:36.918Z,100710.84
2022-08-19T16:05:26.380Z,100713.53
2022-08-19T16:07:54.626Z,100711.88
2022-08-19T16:10:27.234Z,100715.34
2022-08-19T16:12:56.852Z,100719.94
2022-08-19T16:15:27.861Z,100728.75
2022-08-19T16:17:57.647Z,100716.72
2022-08-19T16:20:27.875Z,100723.06
2022-08-19T16:22:58.184Z,100723.72
2022-08-19T16:25:28.564Z,100738.38
2022-08-19T16:28:07.953Z,100730.72
2022-08-19T16:30:37.841Z,100730.44
2022-08-19T16:33:05.622Z,100724.28
2022-08-19T16:35:32.912Z,100732.41
2022-08-19T16:38:01.122Z,100731.09
2022-08-19T16:40:28.480Z,100728.44
2022-08-19T16:42:56.482Z,100726.31
2022-08-19T16:45:23.772Z,100730.78
2022-08-19T16:47:51.116Z,100729.09
2022-08-19T16:50:25.416Z,100730.03
2022-08-19T16:53:07.239Z,100730.44
2022-08-19T16:55:34.424Z,100727.06
2022-08-19T16:58:04.359Z,100725.47
2022-08-19T17:00:31.673Z,100729.00
2022-08-19T17:03:14.649Z,100733.38
2022-08-19T17:05:46.432Z,100729.94
2022-08-19T17:08:17.883Z,100729.31
2022-08-19T17:11:07.909Z,100738.00
2022-08-19T17:13:33.200Z,100727.72
2022-08-19T17:16:00.542Z,100739.03
2022-08-19T17:18:31.773Z,100743.88
2022-08-19T17:21:01.191Z,100748.63
2022-08-19T17:23:42.710Z,100751.22
2022-08-19T17:26:17.974Z,100741.09
2022-08-19T17:28:49.636Z,100743.22
2022-08-19T17:31:18.856Z,100748.16
2022-08-19T17:33:48.030Z,100742.59
2022-08-19T17:36:23.524Z,100756.81
2022-08-19T17:38:55.263Z,100751.53
2022-08-19T17:41:24.540Z,100760.75
2022-08-19T17:43:52.257Z,100758.31
2022-08-19T17:46:20.306Z,100749.34
2022-08-19T17:48:56.670Z,100755.63
2022-08-19T17:51:32.884Z,100756.44
2022-08-19T17:54:00.816Z,100759.03
2022-08-19T17:56:28.818Z,100761.19
2022-08-19T17:59:00.134Z,100764.63
2022-08-19T18:01:43.869Z,100759.94
2022-08-19T18:04:18.704Z,100767.56
2022-08-19T18:06:53.181Z,100764.00
2022-08-19T18:09:42.428Z,100778.09
2022-08-19T18:12:12.834Z,100773.41
2022-08-19T18:14:41.297Z,100783.00
2022-08-19T18:17:11.675Z,100780.38
2022-08-19T18:19:42.726Z,100776.00
2022-08-19T18:22:29.536Z,100787.59
2022-08-19T18:24:58.547Z,100780.88
2022-08-19T18:27:27.745Z,100790.03
2022-08-19T18:29:59.240Z,100789.06
2022-08-19T18:32:34.032Z,100787.88
2022-08-19T18:35:03.885Z,100789.91
2022-08-19T18:37:31.078Z,100791.94
2022-08-19T18:40:16.633Z,100804.31
2022-08-19T18:43:04.033Z,100803.00
2022-08-19T18:45:50.306Z,100818.06
2022-08-19T18:48:36.355Z,100817.88
2022-08-19T18:51:03.792Z,100815.69
2022-08-19T18:53:34.607Z,100810.78
2022-08-19T18:56:02.030Z,100810.47
2022-08-19T18:58:33.820Z,100809.53
2022-08-19T19:01:16.438Z,100819.09
2022-08-19T19:03:46.677Z,100820.13
2022-08-19T19:06:19.884Z,100821.31
2022-08-19T19:08:48.276Z,100821.47
2022-08-19T19:11:22.588Z,100817.28
2022-08-19T19:13:49.859Z,100820.00
2022-08-19T19:16:22.387Z,100811.38
2022-08-19T19:18:52.831Z,100820.84
2022-08-19T19:21:23.039Z,100826.22
2022-08-19T19:23:51.411Z,100831.16
2022-08-19T19:26:18.801Z,100823.06
2022-08-19T19:28:46.154Z,100826.25
2022-08-19T19:31:19.331Z,100833.84
2022-08-19T19:33:46.610Z,100836.03
2022-08-19T19:36:14.263Z,100841.63
2022-08-19T19:38:48.610Z,100841.78
2022-08-19T19:41:24.224Z,100838.56
2022-08-19T19:44:23.270Z,100849.72
2022-08-19T19:46:43.927Z,100853.75
2022-08-19T19:49:12.831Z,100851.22
2022-08-19T19:51:41.411Z,100859.16
2022-08-19T19:54:15.669Z,100855.63
2022-08-19T19:56:45.009Z,100865.88
2022-08-19T19:59:12.420Z,100869.59
2022-08-19T20:01:40.980Z,100869.38
2022-08-19T20:04:16.149Z,100870.88
2022-08-19T20:06:45.495Z,100863.31
2022-08-19T20:09:19.755Z,100863.44
2022-08-19T20:11:53.383Z,100875.06
2022-08-19T20:14:31.416Z,100874.38
2022-08-19T20:17:00.218Z,100876.06
2022-08-19T20:19:34.247Z,100879.59
2022-08-19T20:22:01.545Z,100873.69
2022-08-19T20:24:32.684Z,100876.19
2022-08-19T20:27:01.423Z,100873.19
2022-08-19T20:29:39.124Z,100874.50
2022-08-19T20:32:10.208Z,100874.38
2022-08-19T20:34:39.364Z,100868.13
2022-08-19T20:37:09.303Z,100874.16
2022-08-19T20:39:38.115Z,100870.09
2022-08-19T20:42:05.685Z,100867.72
2022-08-19T20:44:32.921Z,100868.75
2022-08-19T20:47:03.608Z,100867.88
2022-08-19T20:49:32.089Z,100867.47
2022-08-19T20:51:59.383Z,100870.34
2022-08-19T20:54:27.078Z,100873.47
2022-08-19T20:56:54.556Z,100873.97
2022-08-19T20:59:22.994Z,100870.41
2022-08-19T21:01:51.872Z,100876.81
2022-08-19T21:04:22.355Z,100871.59
2022-08-19T21:06:50.588Z,100869.38
2022-08-19T21:09:18.299Z,100870.41
2022-08-19T21:11:45.624Z,100869.22
2022-08-19T21:14:13.181Z,100865.50
2022-08-19T21:16:40.519Z,100880.66
2022-08-19T21:19:07.911Z,100873.91
2022-08-19T21:21:35.272Z,100870.69
2022-08-19T21:24:03.234Z,100871.56
2022-08-19T21:26:30.557Z,100878.41
2022-08-19T21:28:57.881Z,100883.09
2022-08-19T21:31:25.251Z,100885.13
2022-08-19T21:33:52.543Z,100883.44
2022-08-19T21:36:19.940Z,100880.03
2022-08-19T21:38:47.224Z,100884.53
2022-08-19T21:41:14.552Z,100883.53
2022-08-19T21:43:42.049Z,100881.53
2022-08-19T21:46:09.554Z,100888.53
2022-08-19T21:48:36.904Z,100889.88
2022-08-19T21:51:04.268Z,100891.19
2022-08-19T21:53:34.169Z,100898.88
2022-08-19T21:56:03.860Z,100889.13
2022-08-19T21:58:31.147Z,100891.94
2022-08-19T22:01:05.695Z,100897.50
2022-08-19T22:03:35.145Z,100895.78
2022-08-19T22:06:02.870Z,100897.81
2022-08-19T22:08:31.456Z,100905.50
2022-08-19T22:11:01.392Z,100910.63
2022-08-19T22:13:37.951Z,100908.28
2022-08-19T22:16:07.670Z,100910.44
2022-08-19T22:18:35.444Z,100906.53
2022-08-19T22:21:06.391Z,100903.69
2022-08-19T22:23:36.884Z,100897.84
2022-08-19T22:26:04.275Z,100901.91
2022-08-19T22:28:31.504Z,100898.34
2022-08-19T22:30:58.754Z,100904.50
2022-08-19T22:33:27.804Z,100910.63
2022-08-19T22:35:56.028Z,100910.34
2022-08-19T22:38:23.976Z,100910.75
2022-08-19T22:40:52.882Z,100909.88
2022-08-19T22:43:25.483Z,100907.03
2022-08-19T22:45:54.627Z,100900.41
2022-08-19T22:48:26.008Z,100905.78
2022-08-19T22:51:13.899Z,100905.94
2022-08-19T22:53:45.043Z,100902.03
2022-08-19T22:56:15.456Z,100909.25
2022-08-19T22:58:43.703Z,100908.56
2022-08-19T23:01:14.620Z,100915.25
2022-08-19T23:03:52.471Z,100918.91
2022-08-19T23:06:19.747Z,100918.75
2022-08-19T23:08:47.412Z,100918.75
2022-08-19T23:11:15.131Z,100918.47
2022-08-19T23:13:42.624Z,100920.63
2022-08-19T23:16:09.963Z,100919.91
2022-08-19T23:18:37.275Z,100906.94
2022-08-19T23:21:09.623Z,100915.63
2022-08-19T23:23:37.896Z,100913.59
2022-08-19T23:26:10.818Z,100910.41
2022-08-19T23:28:57.732Z,100910.69
2022-08-19T23:31:26.732Z,100915.22
2022-08-19T23:33:53.992Z,100906.63
2022-08-19T23:36:22.577Z,100913.44
2022-08-19T23:38:52.247Z,100903.56
2022-08-19T23:41:21.428Z,100912.59
2022-08-19T23:43:50.847Z,100911.28
2022-08-19T23:46:27.401Z,100897.19
2022-08-19T23:48:57.403Z,100897.72
2022-08-19T23:51:26.511Z,100895.03
2022-08-19T23:53:54.225Z,100904.84
2022-08-19T23:56:21.532Z,100913.53
2022-08-19T23:58:49.314Z,100908.00
